Search for airport 
image banner adimage banner adimage banner ad
image banner ad

15PS - Jennersville Rgnl Hospital

Located in West Grove, United States

ICAO - 15PS, IATA -

Data provided by Airmate  

General information

Coordinates: N39°49'21" W75°53'17"
Elevation is 500 feet MSL.
 
View others Airports in Pennsylvania

Operational data

Special qualification required
Current time UTC:
Current local time:
Weather at : KMQS - Chester County G O Carlson ( 17 km )
METAR: KMQS 091335Z AUTO 29007KT 10SM BKN095 09/03 A3011 RMK AO2
View NOTAMs / SUP AIP / TFR affecting this airport [VIEW]
Communications frequencies: [VIEW]

Runways:

Airport contact information

Address: West Grove United States

Satellite view of 15PS